createdAt,value
2023-01-06T00:01:25.446Z,99566.09
2023-01-06T00:03:55.213Z,99563.53
2023-01-06T00:06:27.551Z,99563.90
2023-01-06T00:09:00.769Z,99568.59
2023-01-06T00:11:29.234Z,99574.67
2023-01-06T00:13:57.167Z,99573.54
2023-01-06T00:16:25.049Z,99574.65
2023-01-06T00:18:57.650Z,99578.16
2023-01-06T00:21:25.892Z,99582.94
2023-01-06T00:23:54.153Z,99587.52
2023-01-06T00:26:22.230Z,99575.77
2023-01-06T00:28:57.080Z,99584.88
2023-01-06T00:31:27.237Z,99593.42
2023-01-06T00:33:57.234Z,99598.81
2023-01-06T00:36:25.625Z,99595.42
2023-01-06T00:38:53.556Z,99601.41
2023-01-06T00:41:41.140Z,99603.94
2023-01-06T00:44:09.332Z,99615.23
2023-01-06T00:46:37.302Z,99616.70
2023-01-06T00:49:07.159Z,99617.47
2023-01-06T00:51:38.388Z,99620.09
2023-01-06T00:54:10.824Z,99613.83
2023-01-06T00:56:42.563Z,99622.77
2023-01-06T00:59:12.827Z,99634.13
2023-01-06T01:01:42.151Z,99630.87
2023-01-06T01:04:11.084Z,99631.27
2023-01-06T01:06:39.312Z,99635.29
2023-01-06T01:09:07.826Z,99636.48
2023-01-06T01:11:54.611Z,99639.05
2023-01-06T01:14:22.503Z,99636.97
2023-01-06T01:16:50.494Z,99644.95
2023-01-06T01:19:18.860Z,99635.50
2023-01-06T01:21:47.163Z,99646.74
2023-01-06T01:24:15.819Z,99646.05
2023-01-06T01:26:44.084Z,99643.88
2023-01-06T01:29:16.219Z,99646.84
2023-01-06T01:31:44.509Z,99648.77
2023-01-06T01:34:15.210Z,99644.61
2023-01-06T01:36:45.993Z,99650.13
2023-01-06T01:39:17.091Z,99656.83
2023-01-06T01:41:45.889Z,99660.30
2023-01-06T01:44:50.931Z,99661.80
2023-01-06T01:47:30.748Z,99662.09
2023-01-06T01:50:31.485Z,99658.92
2023-01-06T01:53:07.707Z,99658.34
2023-01-06T01:55:37.271Z,99658.64
2023-01-06T01:58:12.587Z,99659.37
2023-01-06T02:00:43.386Z,99663.07
2023-01-06T02:03:14.228Z,99661.46
2023-01-06T02:05:48.285Z,99658.02
2023-01-06T02:08:33.352Z,99654.55
2023-01-06T02:11:01.989Z,99656.95
2023-01-06T02:13:32.451Z,99658.02
2023-01-06T02:16:13.548Z,99659.22
2023-01-06T02:18:50.588Z,99658.98
2023-01-06T02:21:23.491Z,99654.65
2023-01-06T02:24:18.538Z,99653.05
2023-01-06T02:27:20.427Z,99651.91
2023-01-06T02:30:06.736Z,99647.86
2023-01-06T02:33:19.021Z,99642.70
2023-01-06T02:36:01.721Z,99641.52
2023-01-06T02:38:29.899Z,99642.06
2023-01-06T02:41:11.932Z,99637.79
2023-01-06T02:44:02.840Z,99636.83
2023-01-06T02:46:45.419Z,99635.70
2023-01-06T02:49:28.893Z,99636.80
2023-01-06T02:52:17.087Z,99636.45
2023-01-06T02:54:53.651Z,99637.00
2023-01-06T02:57:45.294Z,99639.67
2023-01-06T03:00:31.932Z,99639.72
2023-01-06T03:03:04.622Z,99638.52
2023-01-06T03:05:35.945Z,99639.56
2023-01-06T03:08:11.796Z,99632.80
2023-01-06T03:10:42.445Z,99629.66
2023-01-06T03:13:46.962Z,99629.50
2023-01-06T03:16:16.307Z,99628.83
2023-01-06T03:18:46.861Z,99622.61
2023-01-06T03:21:18.610Z,99620.84
2023-01-06T03:23:47.291Z,99624.28
2023-01-06T03:26:15.595Z,99629.27
2023-01-06T03:28:45.683Z,99628.94
2023-01-06T03:31:38.899Z,99632.38
2023-01-06T03:34:44.027Z,99631.80
2023-01-06T03:38:05.163Z,99631.77
2023-01-06T03:40:45.001Z,99627.90
2023-01-06T03:43:31.968Z,99624.52
2023-01-06T03:46:24.549Z,99624.09
2023-01-06T03:49:05.513Z,99625.91
2023-01-06T03:51:57.768Z,99622.23
2023-01-06T03:54:32.464Z,99620.64
2023-01-06T03:57:09.693Z,99623.41
2023-01-06T03:59:45.017Z,99632.64
2023-01-06T04:02:14.493Z,99633.63
2023-01-06T04:04:42.768Z,99631.52
2023-01-06T04:07:11.654Z,99631.17
2023-01-06T04:09:40.693Z,99627.38
2023-01-06T04:12:27.132Z,99627.05
2023-01-06T04:14:54.963Z,99631.77
2023-01-06T04:17:23.061Z,99633.44
2023-01-06T04:19:51.016Z,99637.09
2023-01-06T04:22:19.112Z,99631.99
2023-01-06T04:24:46.962Z,99631.56
2023-01-06T04:27:14.861Z,99625.85
2023-01-06T04:29:43.343Z,99620.98
2023-01-06T04:32:12.315Z,99619.17
2023-01-06T04:34:40.555Z,99616.99
2023-01-06T04:37:08.877Z,99617.91
2023-01-06T04:39:36.743Z,99613.65
2023-01-06T04:42:04.815Z,99609.19
2023-01-06T04:44:32.663Z,99600.30
2023-01-06T04:47:00.459Z,99603.39
2023-01-06T04:49:28.277Z,99611.48
2023-01-06T04:51:56.193Z,99617.27
2023-01-06T04:54:24.063Z,99626.48
2023-01-06T04:56:51.928Z,99634.11
2023-01-06T04:59:20.115Z,99628.24
2023-01-06T05:01:48.058Z,99616.28
2023-01-06T05:04:15.924Z,99613.92
2023-01-06T05:06:43.777Z,99614.91
2023-01-06T05:09:11.902Z,99619.06
2023-01-06T05:11:39.803Z,99620.39
2023-01-06T05:14:07.781Z,99619.27
2023-01-06T05:16:35.716Z,99613.60
2023-01-06T05:19:04.174Z,99608.31
2023-01-06T05:21:33.008Z,99605.38
2023-01-06T05:24:00.978Z,99608.90
2023-01-06T05:26:29.300Z,99607.11
2023-01-06T05:28:57.292Z,99604.42
2023-01-06T05:31:25.161Z,99605.16
2023-01-06T05:33:53.020Z,99607.60
2023-01-06T05:36:20.949Z,99606.33
2023-01-06T05:38:53.706Z,99603.46
2023-01-06T05:41:21.602Z,99603.36
2023-01-06T05:43:49.444Z,99596.80
2023-01-06T05:46:17.339Z,99592.54
2023-01-06T05:48:45.246Z,99595.91
2023-01-06T05:51:15.201Z,99595.65
2023-01-06T05:53:45.096Z,99597.28
2023-01-06T05:56:18.366Z,99605.73
2023-01-06T05:58:49.486Z,99605.10
2023-01-06T06:01:21.056Z,99610.34
2023-01-06T06:03:50.007Z,99612.75
2023-01-06T06:06:19.217Z,99613.98
2023-01-06T06:08:47.362Z,99612.80
2023-01-06T06:11:18.123Z,99612.34
2023-01-06T06:13:51.680Z,99615.72
2023-01-06T06:16:22.178Z,99611.48
2023-01-06T06:18:59.561Z,99609.98
2023-01-06T06:21:30.463Z,99606.05
2023-01-06T06:23:59.491Z,99605.34
2023-01-06T06:26:27.631Z,99607.63
2023-01-06T06:28:55.940Z,99608.88
2023-01-06T06:31:28.962Z,99611.07
2023-01-06T06:33:59.382Z,99609.52
2023-01-06T06:36:28.408Z,99606.95
2023-01-06T06:38:56.759Z,99604.04
2023-01-06T06:41:25.825Z,99603.58
2023-01-06T06:43:53.723Z,99602.36
2023-01-06T06:46:22.425Z,99602.86
2023-01-06T06:48:50.965Z,99603.13
2023-01-06T06:51:20.978Z,99601.43
2023-01-06T06:53:49.749Z,99593.70
2023-01-06T06:56:19.723Z,99597.30
2023-01-06T06:58:47.787Z,99601.28
2023-01-06T07:01:18.549Z,99604.60
2023-01-06T07:03:47.559Z,99606.80
2023-01-06T07:06:21.079Z,99607.27
2023-01-06T07:08:50.118Z,99606.32
2023-01-06T07:11:18.600Z,99606.58
2023-01-06T07:13:47.110Z,99602.33
2023-01-06T07:16:15.313Z,99598.61
2023-01-06T07:18:43.838Z,99595.94
2023-01-06T07:21:11.797Z,99599.59
2023-01-06T07:23:39.669Z,99597.31
2023-01-06T07:26:07.580Z,99598.85
2023-01-06T07:28:35.482Z,99595.08
2023-01-06T07:31:03.724Z,99594.34
2023-01-06T07:33:31.678Z,99597.09
2023-01-06T07:35:59.520Z,99595.88
2023-01-06T07:38:27.430Z,99594.61
2023-01-06T07:41:00.609Z,99588.70
2023-01-06T07:43:28.862Z,99584.27
2023-01-06T07:45:56.775Z,99583.23
2023-01-06T07:48:24.676Z,99579.83
2023-01-06T07:50:52.604Z,99578.02
2023-01-06T07:53:20.668Z,99577.77
2023-01-06T07:55:52.745Z,99572.22
2023-01-06T07:58:23.876Z,99570.80
2023-01-06T08:00:52.223Z,99575.40
2023-01-06T08:03:20.626Z,99577.81
2023-01-06T08:05:48.746Z,99573.13
2023-01-06T08:08:17.124Z,99583.63
2023-01-06T08:10:45.016Z,99577.69
2023-01-06T08:13:13.021Z,99573.48
2023-01-06T08:15:41.006Z,99564.30
2023-01-06T08:18:08.952Z,99557.66
2023-01-06T08:20:36.955Z,99548.30
2023-01-06T08:23:04.958Z,99547.01
2023-01-06T08:25:33.096Z,99546.95
2023-01-06T08:28:01.388Z,99539.66
2023-01-06T08:30:29.673Z,99538.14
2023-01-06T08:32:59.427Z,99530.56
2023-01-06T08:35:27.928Z,99524.92
2023-01-06T08:37:56.234Z,99520.48
2023-01-06T08:40:24.121Z,99522.17
2023-01-06T08:42:52.127Z,99520.95
2023-01-06T08:45:20.033Z,99521.35
2023-01-06T08:47:47.942Z,99519.47
2023-01-06T08:50:16.000Z,99520.64
2023-01-06T08:52:44.004Z,99516.75
2023-01-06T08:55:12.174Z,99516.96
2023-01-06T08:57:40.137Z,99517.51
2023-01-06T09:00:09.241Z,99517.70
2023-01-06T09:02:37.123Z,99512.61
2023-01-06T09:05:05.929Z,99508.88
2023-01-06T09:07:33.819Z,99498.58
2023-01-06T09:10:01.791Z,99492.34
2023-01-06T09:12:29.727Z,99492.98
2023-01-06T09:14:57.586Z,99496.32
2023-01-06T09:17:25.711Z,99494.03
2023-01-06T09:19:53.586Z,99495.55
2023-01-06T09:22:21.487Z,99492.13
2023-01-06T09:24:49.327Z,99488.13
2023-01-06T09:27:17.391Z,99484.14
2023-01-06T09:29:45.273Z,99478.01
2023-01-06T09:32:13.289Z,99475.27
2023-01-06T09:34:41.235Z,99468.19
2023-01-06T09:37:09.212Z,99465.13
2023-01-06T09:39:37.288Z,99467.75
2023-01-06T09:42:39.831Z,99466.44
2023-01-06T09:45:17.295Z,99465.77
2023-01-06T09:47:51.962Z,99462.27
2023-01-06T09:50:34.651Z,99458.58
2023-01-06T09:53:11.183Z,99460.25
2023-01-06T09:55:44.249Z,99460.48
2023-01-06T09:58:22.975Z,99450.29
2023-01-06T10:00:54.568Z,99443.02
2023-01-06T10:03:25.104Z,99441.37
2023-01-06T10:06:16.501Z,99441.60
2023-01-06T10:09:03.095Z,99436.91
2023-01-06T10:11:51.882Z,99426.27
2023-01-06T10:14:29.549Z,99418.67
2023-01-06T10:17:15.943Z,99414.20
2023-01-06T10:19:58.941Z,99405.88
2023-01-06T10:22:48.666Z,99404.34
2023-01-06T10:25:22.783Z,99402.82
2023-01-06T10:27:55.617Z,99399.73
2023-01-06T10:30:44.085Z,99396.02
2023-01-06T10:33:24.182Z,99398.05
2023-01-06T10:35:55.356Z,99394.98
2023-01-06T10:38:29.272Z,99391.69
2023-01-06T10:41:10.754Z,99389.61
2023-01-06T10:43:38.634Z,99387.63
2023-01-06T10:46:06.704Z,99379.29
2023-01-06T10:48:35.311Z,99377.73
2023-01-06T10:51:39.793Z,99363.62
2023-01-06T10:54:12.254Z,99356.73
2023-01-06T10:56:45.600Z,99354.48
2023-01-06T10:59:14.179Z,99352.77
2023-01-06T11:01:52.161Z,99348.09
2023-01-06T11:04:21.598Z,99347.73
2023-01-06T11:06:52.246Z,99351.77
2023-01-06T11:09:25.878Z,99348.91
2023-01-06T11:11:55.753Z,99342.98
2023-01-06T11:14:29.048Z,99342.48
2023-01-06T11:17:02.543Z,99341.33
2023-01-06T11:19:35.320Z,99339.21
2023-01-06T11:22:04.123Z,99341.35
2023-01-06T11:24:32.319Z,99334.55
2023-01-06T11:27:14.385Z,99327.79
2023-01-06T11:29:42.273Z,99320.18
2023-01-06T11:32:16.979Z,99309.59
2023-01-06T11:34:54.428Z,99305.77
2023-01-06T11:37:34.628Z,99299.97
2023-01-06T11:40:14.416Z,99304.20
2023-01-06T11:42:42.810Z,99302.80
2023-01-06T11:45:32.347Z,99303.52
2023-01-06T11:48:01.567Z,99301.60
2023-01-06T11:50:29.694Z,99294.23
2023-01-06T11:53:03.586Z,99290.52
2023-01-06T11:55:31.632Z,99294.18
2023-01-06T11:58:31.137Z,99288.27
2023-01-06T12:01:09.588Z,99275.98
2023-01-06T12:03:41.651Z,99267.08
2023-01-06T12:06:32.078Z,99255.65
2023-01-06T12:09:16.127Z,99247.96
2023-01-06T12:11:53.305Z,99241.27
2023-01-06T12:14:29.688Z,99235.84
2023-01-06T12:17:07.195Z,99235.95
2023-01-06T12:19:37.977Z,99224.91
2023-01-06T12:22:17.202Z,99222.59
2023-01-06T12:24:47.535Z,99210.85
2023-01-06T12:27:27.568Z,99210.48
2023-01-06T12:30:00.598Z,99213.73
2023-01-06T12:32:36.344Z,99230.46
2023-01-06T12:35:06.842Z,99228.35
2023-01-06T12:37:41.407Z,99222.81
2023-01-06T12:40:28.191Z,99211.41
2023-01-06T12:43:14.126Z,99201.91
2023-01-06T12:45:56.646Z,99205.19
2023-01-06T12:48:49.762Z,99214.52
2023-01-06T12:51:30.444Z,99219.00
2023-01-06T12:54:06.737Z,99222.36
2023-01-06T12:57:02.172Z,99223.27
2023-01-06T12:59:56.467Z,99222.70
2023-01-06T13:02:36.783Z,99221.55
2023-01-06T13:05:52.863Z,99221.05
2023-01-06T13:08:51.160Z,99204.99
2023-01-06T13:11:40.905Z,99203.89
2023-01-06T13:14:26.176Z,99202.17
2023-01-06T13:17:14.937Z,99198.90
2023-01-06T13:20:23.805Z,99194.35
2023-01-06T13:23:06.100Z,99188.80
2023-01-06T13:25:52.768Z,99190.28
2023-01-06T13:28:44.771Z,99190.27
2023-01-06T13:31:32.991Z,99186.39
2023-01-06T13:34:10.096Z,99181.27
2023-01-06T13:37:02.516Z,99191.32
2023-01-06T13:39:34.751Z,99193.85
2023-01-06T13:42:06.152Z,99210.86
2023-01-06T13:44:38.769Z,99208.90
2023-01-06T13:47:13.234Z,99206.11
2023-01-06T13:49:42.277Z,99206.96
2023-01-06T13:52:31.267Z,99205.15
2023-01-06T13:55:02.613Z,99208.15
2023-01-06T13:57:36.842Z,99207.32
2023-01-06T14:00:04.686Z,99205.60
2023-01-06T14:02:39.924Z,99205.42
2023-01-06T14:05:19.850Z,99199.98
2023-01-06T14:07:50.778Z,99205.67
2023-01-06T14:10:42.479Z,99198.41
2023-01-06T14:13:32.908Z,99193.65
2023-01-06T14:16:11.122Z,99192.07
2023-01-06T14:18:51.837Z,99196.27
2023-01-06T14:21:29.168Z,99194.50
2023-01-06T14:23:56.979Z,99189.87
2023-01-06T14:27:11.024Z,99184.44
2023-01-06T14:29:48.905Z,99180.63
2023-01-06T14:32:19.479Z,99183.41
2023-01-06T14:35:00.253Z,99186.95
2023-01-06T14:37:54.389Z,99191.38
2023-01-06T14:40:29.483Z,99193.05
2023-01-06T14:42:59.624Z,99190.60
2023-01-06T14:45:38.509Z,99193.81
2023-01-06T14:48:18.309Z,99192.40
2023-01-06T14:50:52.087Z,99189.77
2023-01-06T14:53:28.332Z,99187.83
2023-01-06T14:55:57.687Z,99188.61
2023-01-06T14:58:33.873Z,99187.53
2023-01-06T15:01:03.175Z,99182.96
2023-01-06T15:03:32.245Z,99184.48
2023-01-06T15:06:21.631Z,99185.23
2023-01-06T15:08:49.774Z,99182.85
2023-01-06T15:11:29.263Z,99188.66
2023-01-06T15:13:57.595Z,99188.42
2023-01-06T15:16:35.182Z,99190.72
2023-01-06T15:19:07.270Z,99195.08
2023-01-06T15:21:40.293Z,99200.36
2023-01-06T15:24:36.563Z,99205.72
2023-01-06T15:27:07.023Z,99209.77
2023-01-06T15:29:35.215Z,99212.72
2023-01-06T15:32:04.617Z,99218.85
2023-01-06T15:34:32.368Z,99226.73
2023-01-06T15:37:02.406Z,99226.19
2023-01-06T15:39:32.774Z,99227.76
2023-01-06T15:42:04.408Z,99226.48
2023-01-06T15:44:37.747Z,99224.11
2023-01-06T15:47:11.664Z,99215.81
2023-01-06T15:49:49.185Z,99212.17
2023-01-06T15:52:26.604Z,99211.41
2023-01-06T15:54:56.921Z,99211.05
2023-01-06T15:57:26.509Z,99215.42
2023-01-06T16:00:01.813Z,99214.92
2023-01-06T16:02:33.775Z,99217.02
2023-01-06T16:05:02.457Z,99214.36
2023-01-06T16:07:39.834Z,99213.09
2023-01-06T16:10:36.922Z,99217.48
2023-01-06T16:13:27.774Z,99220.64
2023-01-06T16:16:04.418Z,99219.45
2023-01-06T16:18:35.296Z,99226.13
2023-01-06T16:21:30.016Z,99236.64
2023-01-06T16:24:02.106Z,99238.70
2023-01-06T16:26:32.966Z,99242.15
2023-01-06T16:29:02.813Z,99242.23
2023-01-06T16:31:34.149Z,99245.05
2023-01-06T16:34:34.562Z,99246.73
2023-01-06T16:37:03.922Z,99244.42
2023-01-06T16:39:31.803Z,99244.61
2023-01-06T16:41:59.696Z,99244.73
2023-01-06T16:44:32.313Z,99244.71
2023-01-06T16:47:02.015Z,99251.96
2023-01-06T16:49:30.724Z,99253.06
2023-01-06T16:51:59.465Z,99251.42
2023-01-06T16:54:27.350Z,99253.40
2023-01-06T16:56:55.275Z,99252.30
2023-01-06T16:59:36.281Z,99260.11
2023-01-06T17:02:15.971Z,99259.56
2023-01-06T17:04:45.943Z,99262.93
2023-01-06T17:07:15.212Z,99260.58
2023-01-06T17:09:43.312Z,99267.42
2023-01-06T17:12:34.980Z,99267.17
2023-01-06T17:15:03.616Z,99271.42
2023-01-06T17:17:31.560Z,99273.81
2023-01-06T17:19:59.528Z,99269.42
2023-01-06T17:22:30.262Z,99270.23
2023-01-06T17:25:01.834Z,99270.98
2023-01-06T17:27:30.175Z,99270.52
2023-01-06T17:30:01.204Z,99273.52
2023-01-06T17:32:38.348Z,99273.77
2023-01-06T17:35:32.865Z,99275.33
2023-01-06T17:38:07.946Z,99270.82
2023-01-06T17:40:38.510Z,99277.59
2023-01-06T17:43:22.015Z,99278.63
2023-01-06T17:45:50.253Z,99281.93
2023-01-06T17:48:18.282Z,99279.62
2023-01-06T17:50:55.041Z,99285.67
2023-01-06T17:53:48.078Z,99281.73
2023-01-06T17:56:16.647Z,99286.61
2023-01-06T17:58:45.360Z,99282.97
2023-01-06T18:01:25.853Z,99286.42
2023-01-06T18:03:57.048Z,99287.45
2023-01-06T18:06:37.254Z,99292.54
2023-01-06T18:09:05.198Z,99298.79
2023-01-06T18:11:39.589Z,99299.95
2023-01-06T18:14:38.752Z,99301.98
2023-01-06T18:17:40.040Z,99303.55
2023-01-06T18:20:08.215Z,99303.97
2023-01-06T18:22:38.145Z,99309.52
2023-01-06T18:25:15.031Z,99309.00
2023-01-06T18:27:42.900Z,99309.04
2023-01-06T18:30:27.893Z,99316.42
2023-01-06T18:32:56.243Z,99320.80
2023-01-06T18:35:28.629Z,99316.33
2023-01-06T18:38:03.168Z,99320.58
2023-01-06T18:40:31.657Z,99320.29
2023-01-06T18:43:22.513Z,99324.80
2023-01-06T18:45:53.511Z,99325.13
2023-01-06T18:48:27.579Z,99327.75
2023-01-06T18:50:57.572Z,99327.13
2023-01-06T18:53:39.978Z,99330.94
2023-01-06T18:56:15.767Z,99330.86
2023-01-06T18:58:57.154Z,99327.89
2023-01-06T19:01:27.019Z,99326.59
2023-01-06T19:04:18.866Z,99330.38
2023-01-06T19:06:51.644Z,99320.40
2023-01-06T19:09:26.166Z,99326.64
2023-01-06T19:12:15.188Z,99334.16
2023-01-06T19:14:46.594Z,99335.14
2023-01-06T19:17:38.247Z,99341.91
2023-01-06T19:20:17.820Z,99345.54
2023-01-06T19:22:46.024Z,99350.55
2023-01-06T19:25:34.888Z,99346.92
2023-01-06T19:28:11.088Z,99347.98
2023-01-06T19:30:51.529Z,99355.32
2023-01-06T19:33:25.463Z,99359.88
2023-01-06T19:36:22.891Z,99362.30
2023-01-06T19:38:50.825Z,99357.67
2023-01-06T19:41:23.966Z,99362.61
2023-01-06T19:44:01.539Z,99366.17
2023-01-06T19:46:31.478Z,99369.09
2023-01-06T19:48:59.973Z,99372.85
2023-01-06T19:51:34.124Z,99371.46
2023-01-06T19:54:23.076Z,99372.57
2023-01-06T19:56:52.308Z,99378.30
2023-01-06T19:59:31.642Z,99381.97
2023-01-06T20:02:21.900Z,99382.23
2023-01-06T20:04:49.960Z,99383.73
2023-01-06T20:07:17.814Z,99385.46
2023-01-06T20:09:45.871Z,99389.42
2023-01-06T20:12:13.976Z,99387.59
2023-01-06T20:14:41.907Z,99392.61
2023-01-06T20:17:09.933Z,99389.23
2023-01-06T20:19:37.903Z,99393.23
2023-01-06T20:22:05.787Z,99396.50
2023-01-06T20:24:33.848Z,99398.00
2023-01-06T20:27:01.870Z,99398.26
2023-01-06T20:29:29.776Z,99399.61
2023-01-06T20:31:58.030Z,99398.86
2023-01-06T20:34:26.104Z,99401.80
2023-01-06T20:36:54.311Z,99404.41
2023-01-06T20:39:22.377Z,99409.07
2023-01-06T20:41:50.241Z,99413.20
2023-01-06T20:44:18.193Z,99415.29
2023-01-06T20:46:46.024Z,99423.05
2023-01-06T20:49:14.242Z,99426.85
2023-01-06T20:51:42.733Z,99429.77
2023-01-06T20:54:10.584Z,99433.39
2023-01-06T20:56:38.533Z,99441.59
2023-01-06T20:59:06.425Z,99442.27
2023-01-06T21:01:34.662Z,99447.46
2023-01-06T21:04:02.686Z,99446.89
2023-01-06T21:06:30.557Z,99445.26
2023-01-06T21:08:58.490Z,99444.52
2023-01-06T21:11:26.320Z,99445.04
2023-01-06T21:13:54.273Z,99442.22
2023-01-06T21:16:22.760Z,99443.92
2023-01-06T21:18:51.432Z,99442.52
2023-01-06T21:21:19.387Z,99441.98
2023-01-06T21:23:47.354Z,99440.00
2023-01-06T21:26:15.340Z,99441.69
2023-01-06T21:28:43.283Z,99446.88
2023-01-06T21:31:11.395Z,99451.48
2023-01-06T21:33:39.344Z,99463.15
2023-01-06T21:36:07.603Z,99462.09
2023-01-06T21:38:37.332Z,99467.51
2023-01-06T21:41:23.992Z,99468.90
2023-01-06T21:43:52.195Z,99473.05
2023-01-06T21:46:20.446Z,99472.89
2023-01-06T21:48:48.322Z,99471.68
2023-01-06T21:51:16.625Z,99472.20
2023-01-06T21:53:44.875Z,99469.60
2023-01-06T21:56:12.923Z,99466.66
2023-01-06T21:58:40.947Z,99466.71
2023-01-06T22:01:08.992Z,99465.87
2023-01-06T22:03:36.912Z,99468.52
2023-01-06T22:06:05.259Z,99469.64
2023-01-06T22:08:33.451Z,99471.03
2023-01-06T22:11:01.681Z,99475.06
2023-01-06T22:13:31.293Z,99476.44
2023-01-06T22:15:59.342Z,99473.98
2023-01-06T22:18:28.094Z,99473.48
2023-01-06T22:20:58.023Z,99479.89
2023-01-06T22:23:27.016Z,99485.30
2023-01-06T22:25:55.032Z,99483.55
2023-01-06T22:28:23.443Z,99480.71
2023-01-06T22:30:53.885Z,99491.37
2023-01-06T22:33:21.848Z,99495.38
2023-01-06T22:35:49.979Z,99492.06
2023-01-06T22:38:17.883Z,99493.98
2023-01-06T22:40:46.711Z,99494.15
2023-01-06T22:43:14.607Z,99495.89
2023-01-06T22:45:42.456Z,99497.13
2023-01-06T22:48:10.373Z,99497.90
2023-01-06T22:50:38.631Z,99502.23
2023-01-06T22:53:06.442Z,99496.84
2023-01-06T22:55:34.557Z,99493.90
2023-01-06T22:58:02.439Z,99499.70
2023-01-06T23:00:30.393Z,99503.44
2023-01-06T23:02:58.460Z,99510.88
2023-01-06T23:05:26.709Z,99509.08
2023-01-06T23:07:54.543Z,99510.84
2023-01-06T23:10:22.547Z,99513.73
2023-01-06T23:12:52.461Z,99513.98
2023-01-06T23:15:20.344Z,99511.20
2023-01-06T23:17:48.221Z,99513.71
2023-01-06T23:20:16.163Z,99513.60
2023-01-06T23:22:44.001Z,99505.77
2023-01-06T23:25:12.015Z,99503.41
2023-01-06T23:27:40.005Z,99508.55
2023-01-06T23:30:08.507Z,99508.98
2023-01-06T23:32:36.420Z,99509.55
2023-01-06T23:35:04.495Z,99509.80
2023-01-06T23:37:33.380Z,99512.75
2023-01-06T23:40:01.207Z,99516.59
2023-01-06T23:42:30.468Z,99513.38
2023-01-06T23:45:00.695Z,99515.27
2023-01-06T23:47:28.533Z,99518.16
2023-01-06T23:49:56.452Z,99522.20
2023-01-06T23:52:24.290Z,99529.16
2023-01-06T23:54:52.111Z,99527.20
2023-01-06T23:57:19.991Z,99525.95
2023-01-06T23:59:47.927Z,99522.25
